Time;durP1;ratioP1;P1;durP2;ratioP2;P2;SDS_P1;SDS_P2;PMS_P1;PMS_P2;Temp;Humidity;BMP_temperature;BMP_pressure;BME280_temperature;BME280_humidity;BME280_pressure;Samples;Min_cycle;Max_cycle;Signal;HPM_P1;HPM_P2
2023/08/23 00:00:12;;;;;;;3.40;1.85;;;17.30;99.90;;;;;;4945019;29;20039;-87
2023/08/23 00:02:38;;;;;;;2.88;2.00;;;17.40;99.90;;;;;;4945493;29;20031;-88
2023/08/23 00:05:04;;;;;;;5.15;2.03;;;17.30;99.90;;;;;;4942484;28;20023;-86
2023/08/23 00:07:30;;;;;;;1.75;1.58;;;17.30;99.90;;;;;;4942967;29;20031;-87
2023/08/23 00:09:55;;;;;;;2.45;2.25;;;17.30;99.90;;;;;;4945327;29;20019;-86
2023/08/23 00:12:21;;;;;;;5.80;2.00;;;17.20;99.90;;;;;;4943636;28;20433;-88
2023/08/23 00:14:47;;;;;;;8.30;2.35;;;17.20;99.90;;;;;;4927765;28;20509;-87
2023/08/23 00:17:12;;;;;;;4.82;2.00;;;17.20;99.90;;;;;;4945253;28;20489;-87
2023/08/23 00:19:38;;;;;;;4.03;1.42;;;17.20;99.90;;;;;;4927855;29;20512;-87
2023/08/23 00:22:04;;;;;;;6.80;2.00;;;17.10;99.90;;;;;;4938309;28;20030;-87
2023/08/23 00:24:29;;;;;;;3.00;1.80;;;17.10;99.90;;;;;;4942151;29;20034;-87
2023/08/23 00:26:55;;;;;;;2.53;1.98;;;17.10;99.90;;;;;;4942584;29;20118;-86
2023/08/23 00:29:22;;;;;;;4.57;1.80;;;17.10;99.90;;;;;;4943823;29;20023;-87
2023/08/23 00:31:47;;;;;;;5.20;1.83;;;17.10;99.90;;;;;;4942831;29;20055;-88
2023/08/23 00:34:13;;;;;;;6.82;1.95;;;17.10;99.90;;;;;;4942066;29;20059;-87
2023/08/23 00:36:39;;;;;;;3.38;2.30;;;17.10;99.90;;;;;;4946439;28;20039;-87
2023/08/23 00:39:04;;;;;;;4.60;2.15;;;17.10;99.90;;;;;;4945653;28;20027;-87
2023/08/23 00:41:30;;;;;;;3.33;1.85;;;17.00;99.90;;;;;;4942680;29;20090;-88
2023/08/23 00:43:55;;;;;;;9.40;2.25;;;17.00;99.90;;;;;;4944849;29;20027;-87
2023/08/23 00:46:22;;;;;;;6.13;2.20;;;17.00;99.90;;;;;;4947419;28;20034;-87
2023/08/23 00:48:49;;;;;;;3.65;2.10;;;17.00;99.90;;;;;;4945440;28;20433;-87
2023/08/23 00:51:15;;;;;;;11.73;3.05;;;17.00;99.90;;;;;;4942426;28;20242;-87
2023/08/23 00:53:41;;;;;;;4.10;2.30;;;16.90;99.90;;;;;;4946125;28;20059;-86
2023/08/23 00:56:07;;;;;;;3.88;2.30;;;16.90;99.90;;;;;;4937340;28;20035;-87
2023/08/23 00:58:34;;;;;;;6.40;2.42;;;16.90;99.90;;;;;;4933256;29;20035;-87
2023/08/23 01:01:00;;;;;;;10.65;4.15;;;16.90;99.90;;;;;;4944193;28;20031;-87
2023/08/23 01:03:26;;;;;;;7.15;2.80;;;16.90;99.90;;;;;;4942553;29;20082;-86
2023/08/23 01:06:28;;;;;;;3.85;2.25;;;16.80;99.90;;;;;;4940563;28;20428;-87
2023/08/23 01:09:07;;;;;;;3.90;2.00;;;16.80;99.90;;;;;;4945397;29;20042;-88
2023/08/23 01:12:11;;;;;;;5.45;2.13;;;16.80;99.90;;;;;;4941108;28;20027;-87
2023/08/23 01:14:54;;;;;;;3.65;2.17;;;16.80;99.90;;;;;;4938811;28;20488;-87
2023/08/23 01:17:21;;;;;;;3.75;2.20;;;16.80;99.90;;;;;;4941885;28;21153;-87
2023/08/23 01:19:51;;;;;;;5.60;1.85;;;16.80;99.90;;;;;;4938875;28;20047;-87
2023/08/23 01:22:21;;;;;;;7.45;2.30;;;16.80;99.90;;;;;;4944123;28;20429;-87
2023/08/23 01:24:48;;;;;;;4.60;1.75;;;16.80;99.90;;;;;;4938522;29;20409;-88
2023/08/23 01:27:16;;;;;;;2.65;1.98;;;16.80;99.90;;;;;;4936767;29;20106;-87
2023/08/23 01:29:44;;;;;;;5.15;2.08;;;16.80;99.90;;;;;;4944167;29;20035;-86
2023/08/23 01:32:36;;;;;;;11.70;2.10;;;16.70;99.90;;;;;;4941075;28;20031;-87
2023/08/23 01:35:06;;;;;;;11.10;2.38;;;16.70;99.90;;;;;;4934139;29;20270;-88
2023/08/23 01:37:33;;;;;;;10.23;2.50;;;16.70;99.90;;;;;;4944372;29;20109;-87
2023/08/23 01:40:01;;;;;;;5.30;1.92;;;16.70;99.90;;;;;;4943957;28;20027;-87
2023/08/23 01:42:29;;;;;;;4.43;2.03;;;16.60;99.90;;;;;;4941105;28;20035;-86
2023/08/23 01:44:56;;;;;;;6.60;2.10;;;16.60;99.90;;;;;;4944543;28;20401;-87
2023/08/23 01:47:22;;;;;;;3.63;2.40;;;16.60;99.90;;;;;;4940884;28;20038;-86
2023/08/23 01:49:49;;;;;;;8.90;3.03;;;16.60;99.90;;;;;;4942487;28;20031;-86
2023/08/23 01:52:15;;;;;;;4.15;2.70;;;16.60;99.90;;;;;;4937969;28;20579;-86
2023/08/23 01:54:40;;;;;;;7.18;2.42;;;16.50;99.90;;;;;;4941340;28;20035;-86
2023/08/23 01:57:08;;;;;;;3.63;2.30;;;16.50;99.90;;;;;;4945289;28;20043;-88
2023/08/23 01:59:37;;;;;;;3.45;2.30;;;16.50;99.90;;;;;;4940572;28;20122;-87
2023/08/23 02:02:03;;;;;;;8.10;2.83;;;16.50;99.90;;;;;;4936596;28;20058;-88
2023/08/23 02:04:28;;;;;;;5.50;2.60;;;16.50;99.90;;;;;;4941720;28;20063;-87
2023/08/23 02:06:54;;;;;;;2.00;1.83;;;16.50;99.90;;;;;;4935526;28;20500;-87
2023/08/23 02:09:20;;;;;;;7.43;2.30;;;16.50;99.90;;;;;;4949031;28;20046;-87
2023/08/23 02:11:45;;;;;;;4.20;2.53;;;16.50;99.90;;;;;;4941229;29;20039;-87
2023/08/23 02:14:11;;;;;;;5.63;2.67;;;16.50;99.90;;;;;;4940984;28;20034;-85
2023/08/23 02:16:37;;;;;;;11.68;3.75;;;16.50;99.90;;;;;;4944295;28;20501;-87
2023/08/23 02:19:02;;;;;;;7.60;2.53;;;16.50;99.90;;;;;;4939120;28;20024;-87
2023/08/23 02:21:29;;;;;;;5.40;2.63;;;16.50;99.90;;;;;;4945423;28;20512;-87
2023/08/23 02:23:55;;;;;;;5.55;2.35;;;16.40;99.90;;;;;;4953013;28;20042;-86
2023/08/23 02:26:22;;;;;;;12.50;2.65;;;16.40;99.90;;;;;;4948041;29;20027;-86
2023/08/23 02:28:47;;;;;;;7.00;2.72;;;16.40;99.90;;;;;;4945116;28;20484;-86
2023/08/23 02:31:13;;;;;;;4.57;2.30;;;16.30;99.90;;;;;;4949864;29;20310;-86
2023/08/23 02:33:39;;;;;;;7.95;2.83;;;16.30;99.90;;;;;;4948065;29;20146;-88
2023/08/23 02:36:04;;;;;;;7.38;2.55;;;16.30;99.90;;;;;;4941234;29;20034;-87
2023/08/23 02:38:30;;;;;;;5.70;2.65;;;16.20;99.90;;;;;;4948688;28;20030;-86
2023/08/23 02:40:58;;;;;;;2.78;2.22;;;16.30;99.90;;;;;;4947118;28;20082;-86
2023/08/23 02:43:24;;;;;;;15.38;3.28;;;16.30;99.90;;;;;;4946599;28;20053;-87
2023/08/23 02:45:50;;;;;;;3.60;2.42;;;16.20;99.90;;;;;;4943435;29;20548;-87
2023/08/23 02:48:15;;;;;;;11.13;3.00;;;16.30;99.90;;;;;;4945526;28;20446;-87
2023/08/23 02:50:42;;;;;;;6.95;2.80;;;16.20;99.90;;;;;;4944757;29;20071;-86
2023/08/23 02:53:08;;;;;;;5.60;3.28;;;16.20;99.90;;;;;;4945434;28;20030;-87
2023/08/23 02:55:36;;;;;;;3.53;2.63;;;16.20;99.90;;;;;;4946090;29;20031;-87
2023/08/23 02:58:02;;;;;;;8.18;2.90;;;16.20;99.90;;;;;;4946971;28;20074;-87
2023/08/23 03:00:28;;;;;;;5.18;2.63;;;16.20;99.90;;;;;;4939578;29;20055;-87
2023/08/23 03:02:53;;;;;;;7.30;2.75;;;16.20;99.90;;;;;;4941160;28;20031;-87
2023/08/23 03:05:19;;;;;;;6.88;3.00;;;16.20;99.90;;;;;;4941510;29;20503;-88
2023/08/23 03:07:44;;;;;;;6.07;2.92;;;16.20;99.90;;;;;;4947400;29;20110;-87
2023/08/23 03:10:10;;;;;;;4.15;2.63;;;16.20;99.90;;;;;;4947544;29;20481;-87
2023/08/23 03:12:36;;;;;;;5.30;3.00;;;16.20;99.90;;;;;;4934508;28;20027;-86
2023/08/23 03:15:03;;;;;;;3.25;2.70;;;16.20;99.90;;;;;;4940019;28;20019;-87
2023/08/23 03:17:28;;;;;;;7.53;3.00;;;16.20;99.90;;;;;;4941739;29;20043;-87
2023/08/23 03:19:56;;;;;;;7.10;2.65;;;16.20;99.90;;;;;;4941939;28;20082;-88
2023/08/23 03:22:21;;;;;;;5.50;2.75;;;16.20;99.90;;;;;;4944375;28;20039;-88
2023/08/23 03:24:47;;;;;;;7.10;2.72;;;16.20;99.90;;;;;;4947999;28;20062;-86
2023/08/23 03:27:12;;;;;;;3.95;2.95;;;16.20;99.90;;;;;;4941678;29;20031;-87
2023/08/23 03:29:38;;;;;;;3.53;3.03;;;16.20;99.90;;;;;;4939891;29;20039;-88
2023/08/23 03:32:04;;;;;;;4.78;2.72;;;16.20;99.90;;;;;;4943160;28;20033;-87
2023/08/23 03:34:29;;;;;;;2.83;2.40;;;16.20;99.90;;;;;;4943109;28;20976;-87
2023/08/23 03:36:55;;;;;;;2.65;2.42;;;16.20;99.90;;;;;;4944598;28;20101;-86
2023/08/23 03:39:21;;;;;;;4.22;2.67;;;16.20;99.90;;;;;;4947152;29;20027;-87
2023/08/23 03:41:47;;;;;;;5.00;2.65;;;16.20;99.90;;;;;;4939171;29;20059;-85
2023/08/23 03:44:13;;;;;;;7.25;2.47;;;16.10;99.90;;;;;;4938825;28;20511;-87
2023/08/23 03:46:38;;;;;;;4.28;3.05;;;16.20;99.90;;;;;;4943610;28;20063;-87
2023/08/23 03:49:04;;;;;;;2.30;2.00;;;16.10;99.90;;;;;;4938950;29;20028;-87
2023/08/23 03:51:29;;;;;;;2.88;2.60;;;16.20;99.90;;;;;;4937135;28;20027;-87
2023/08/23 03:53:56;;;;;;;3.05;2.42;;;16.10;99.90;;;;;;4942020;28;20385;-87
2023/08/23 03:56:22;;;;;;;4.68;2.35;;;16.10;99.90;;;;;;4944625;28;20035;-84
2023/08/23 03:58:49;;;;;;;7.28;2.78;;;16.10;99.90;;;;;;4943471;29;20567;-88
2023/08/23 04:01:14;;;;;;;6.25;3.08;;;16.10;99.90;;;;;;4945665;28;20086;-87
2023/08/23 04:03:40;;;;;;;6.03;2.70;;;16.10;99.90;;;;;;4950730;28;20030;-86
2023/08/23 04:06:06;;;;;;;6.15;2.60;;;16.00;99.90;;;;;;4941340;28;20031;-87
2023/08/23 04:08:32;;;;;;;7.07;3.00;;;16.10;99.90;;;;;;4939035;29;20026;-84
2023/08/23 04:10:57;;;;;;;12.25;3.25;;;16.00;99.90;;;;;;4939798;28;20059;-87
2023/08/23 04:13:23;;;;;;;6.55;2.75;;;16.00;99.90;;;;;;4937304;29;20070;-87
2023/08/23 04:15:48;;;;;;;7.03;3.15;;;16.00;99.90;;;;;;4947220;28;20489;-87
2023/08/23 04:18:14;;;;;;;4.00;2.78;;;16.00;99.90;;;;;;4946316;28;20047;-85
2023/08/23 04:20:41;;;;;;;6.82;2.88;;;16.00;99.90;;;;;;4945875;28;20545;-86
2023/08/23 04:23:07;;;;;;;5.93;2.90;;;16.00;99.90;;;;;;4943834;28;20480;-86
2023/08/23 04:25:32;;;;;;;6.80;2.42;;;16.00;99.90;;;;;;4944628;28;20050;-86
2023/08/23 04:27:58;;;;;;;3.55;2.92;;;16.00;99.90;;;;;;4942793;29;20526;-87
2023/08/23 04:30:24;;;;;;;5.00;2.83;;;16.00;99.90;;;;;;4931132;28;20109;-86
2023/08/23 04:32:49;;;;;;;3.03;2.72;;;16.00;99.90;;;;;;4947152;28;20043;-87
2023/08/23 04:35:15;;;;;;;8.90;3.63;;;16.00;99.90;;;;;;4946114;28;20055;-86
2023/08/23 04:37:42;;;;;;;6.28;3.08;;;16.00;99.90;;;;;;4947696;28;20039;-86
2023/08/23 04:40:07;;;;;;;4.05;2.72;;;16.00;99.90;;;;;;4941099;28;20035;-86
2023/08/23 04:42:34;;;;;;;3.38;3.05;;;16.00;99.90;;;;;;4932380;29;20151;-86
2023/08/23 04:45:00;;;;;;;4.55;2.40;;;16.00;99.90;;;;;;4940453;28;20393;-86
2023/08/23 04:47:30;;;;;;;4.28;2.78;;;16.00;99.90;;;;;;4946142;29;20388;-86
2023/08/23 04:49:58;;;;;;;4.57;2.80;;;16.10;99.90;;;;;;4945439;28;20030;-85
2023/08/23 04:52:24;;;;;;;7.20;2.90;;;16.10;99.90;;;;;;4943577;28;20030;-86
2023/08/23 04:54:50;;;;;;;3.30;2.63;;;16.10;99.90;;;;;;4939252;29;20032;-87
2023/08/23 04:57:15;;;;;;;2.95;2.67;;;16.10;99.90;;;;;;4945672;28;20090;-86
2023/08/23 04:59:41;;;;;;;2.92;2.60;;;16.10;99.90;;;;;;4936013;29;20034;-86
2023/08/23 05:02:07;;;;;;;5.50;3.15;;;16.20;99.90;;;;;;4934442;29;20110;-85
2023/08/23 05:04:32;;;;;;;3.97;3.20;;;16.10;99.90;;;;;;4944219;28;20121;-86
2023/08/23 05:06:58;;;;;;;6.07;3.22;;;16.20;99.90;;;;;;4943839;29;20039;-85
2023/08/23 05:09:24;;;;;;;3.47;2.90;;;16.20;99.90;;;;;;4941898;28;20489;-86
2023/08/23 05:11:49;;;;;;;5.07;3.17;;;16.20;99.90;;;;;;4944110;28;20035;-86
2023/08/23 05:14:15;;;;;;;5.28;3.10;;;16.20;99.90;;;;;;4937235;29;20405;-86
2023/08/23 05:16:43;;;;;;;4.45;2.95;;;16.30;99.90;;;;;;4931385;29;20413;-84
2023/08/23 05:19:09;;;;;;;3.75;2.78;;;16.30;99.90;;;;;;4942754;28;20066;-86
2023/08/23 05:21:35;;;;;;;9.32;3.55;;;16.40;99.90;;;;;;4948493;28;20054;-86
2023/08/23 05:24:00;;;;;;;6.45;3.65;;;16.40;99.90;;;;;;4945982;28;20194;-86
2023/08/23 05:26:26;;;;;;;4.93;3.05;;;16.40;99.90;;;;;;4941552;29;20079;-85
2023/08/23 05:28:52;;;;;;;4.43;3.03;;;16.50;99.90;;;;;;4945607;29;20027;-84
2023/08/23 05:31:17;;;;;;;4.38;3.38;;;16.50;99.90;;;;;;4937199;28;20053;-86
2023/08/23 05:33:43;;;;;;;7.25;4.18;;;16.60;99.90;;;;;;4945760;28;20424;-86
2023/08/23 05:36:09;;;;;;;3.58;3.28;;;16.60;99.90;;;;;;4941577;28;20066;-86
2023/08/23 05:38:34;;;;;;;3.65;3.03;;;16.70;99.90;;;;;;4928598;28;20035;-86
2023/08/23 05:41:00;;;;;;;10.40;4.97;;;16.80;99.90;;;;;;4936188;28;20043;-86
2023/08/23 05:43:28;;;;;;;4.38;3.15;;;16.80;99.90;;;;;;4936709;29;20055;-84
2023/08/23 05:45:56;;;;;;;6.07;3.35;;;16.90;99.90;;;;;;4928685;29;20070;-86
2023/08/23 05:48:22;;;;;;;3.22;2.90;;;17.00;99.90;;;;;;4943772;28;20143;-86
2023/08/23 05:50:48;;;;;;;3.45;3.10;;;17.00;99.90;;;;;;4936320;29;20023;-87
2023/08/23 05:53:18;;;;;;;3.58;2.92;;;17.10;99.90;;;;;;4944329;28;20496;-86
2023/08/23 05:55:49;;;;;;;3.88;3.22;;;17.20;99.90;;;;;;4946733;29;20504;-85
2023/08/23 05:58:19;;;;;;;6.15;3.17;;;17.20;99.90;;;;;;4941357;29;20119;-86
2023/08/23 06:00:46;;;;;;;4.32;3.17;;;17.30;99.90;;;;;;4928877;29;20397;-86
2023/08/23 06:03:14;;;;;;;6.65;3.10;;;17.30;99.90;;;;;;4945054;29;20031;-86
2023/08/23 06:05:41;;;;;;;6.05;2.92;;;17.40;99.90;;;;;;4937158;29;20485;-86
2023/08/23 06:08:07;;;;;;;10.88;3.45;;;17.50;99.90;;;;;;4940756;29;20028;-86
2023/08/23 06:10:33;;;;;;;3.60;3.20;;;17.50;99.90;;;;;;4938639;28;20031;-85
2023/08/23 06:12:58;;;;;;;6.60;3.40;;;17.50;99.90;;;;;;4943072;28;20031;-86
2023/08/23 06:15:24;;;;;;;3.85;2.95;;;17.60;99.90;;;;;;4942299;29;20027;-86
2023/08/23 06:17:50;;;;;;;3.05;2.45;;;17.60;99.90;;;;;;4937605;28;20151;-86
2023/08/23 06:20:16;;;;;;;5.20;3.03;;;17.70;99.90;;;;;;4949661;28;20019;-86
2023/08/23 06:22:43;;;;;;;6.90;3.15;;;17.70;99.90;;;;;;4945838;28;20593;-86
2023/08/23 06:25:09;;;;;;;5.25;3.13;;;17.80;99.90;;;;;;4945589;28;21383;-86
2023/08/23 06:27:34;;;;;;;3.90;3.28;;;17.80;99.90;;;;;;4941012;28;20437;-87
2023/08/23 06:30:01;;;;;;;5.82;3.47;;;17.90;99.90;;;;;;4940298;28;20039;-86
2023/08/23 06:32:26;;;;;;;8.50;4.00;;;18.00;99.90;;;;;;4941562;28;20053;-86
2023/08/23 06:34:53;;;;;;;5.97;4.43;;;18.00;99.90;;;;;;4944172;29;20031;-85
2023/08/23 06:37:18;;;;;;;5.85;3.47;;;18.10;99.90;;;;;;4938521;28;20484;-87
2023/08/23 06:39:44;;;;;;;18.10;5.13;;;18.20;99.90;;;;;;4943459;28;20031;-86
2023/08/23 06:42:10;;;;;;;6.38;3.50;;;18.30;99.90;;;;;;4933514;28;20343;-86
2023/08/23 06:44:35;;;;;;;16.13;3.83;;;18.40;99.90;;;;;;4946169;29;20114;-86
2023/08/23 06:47:01;;;;;;;15.18;5.30;;;18.40;99.90;;;;;;4946383;28;20094;-85
2023/08/23 06:49:27;;;;;;;13.98;5.78;;;18.50;99.90;;;;;;4933045;28;20032;-87
2023/08/23 06:51:52;;;;;;;15.45;5.50;;;18.60;99.90;;;;;;4945537;28;20031;-87
2023/08/23 06:54:18;;;;;;;16.95;5.72;;;18.70;99.90;;;;;;4948194;28;20063;-87
2023/08/23 06:56:47;;;;;;;17.17;5.85;;;18.80;99.90;;;;;;4944510;29;20039;-87
2023/08/23 06:59:13;;;;;;;12.75;5.00;;;18.80;99.90;;;;;;4945001;28;20058;-87
2023/08/23 07:01:38;;;;;;;8.90;4.13;;;18.90;99.90;;;;;;4949076;29;20058;-86
2023/08/23 07:04:04;;;;;;;14.48;6.72;;;18.90;99.90;;;;;;4943627;28;20081;-87
2023/08/23 07:06:31;;;;;;;11.63;5.18;;;19.00;99.90;;;;;;4945121;29;20031;-88
2023/08/23 07:08:57;;;;;;;11.15;5.25;;;19.00;99.90;;;;;;4945394;28;20434;-83
2023/08/23 07:11:23;;;;;;;11.85;4.50;;;19.10;99.90;;;;;;4949996;29;20034;-87
2023/08/23 07:13:48;;;;;;;17.70;5.65;;;19.10;99.90;;;;;;4950651;29;20023;-93
2023/08/23 07:16:14;;;;;;;9.27;4.78;;;19.20;99.90;;;;;;4948938;29;20065;-93
2023/08/23 07:18:39;;;;;;;8.07;4.40;;;19.20;99.90;;;;;;4942671;28;20083;-90
2023/08/23 07:21:05;;;;;;;9.65;4.30;;;19.30;99.90;;;;;;4947532;28;20089;-89
2023/08/23 07:23:31;;;;;;;10.75;5.22;;;19.30;99.90;;;;;;4938247;28;20159;-89
2023/08/23 07:25:57;;;;;;;15.68;4.40;;;19.40;99.90;;;;;;4946773;29;20027;-86
2023/08/23 07:28:23;;;;;;;28.70;5.72;;;19.40;99.90;;;;;;4933389;29;20028;-91
2023/08/23 07:30:49;;;;;;;213.60;16.13;;;19.40;99.90;;;;;;4949752;28;20043;-91
2023/08/23 07:33:53;;;;;;;9.55;4.60;;;19.40;99.90;;;;;;4949093;29;20086;-89
2023/08/23 07:36:18;;;;;;;8.23;3.80;;;19.40;99.90;;;;;;4945340;29;20352;-89
2023/08/23 07:38:44;;;;;;;14.82;6.60;;;19.50;99.90;;;;;;4949280;28;20437;-90
2023/08/23 07:41:10;;;;;;;18.52;5.18;;;19.50;99.90;;;;;;4947426;28;20492;-89
2023/08/23 07:43:37;;;;;;;15.07;5.13;;;19.60;99.90;;;;;;4944592;28;20034;-90
2023/08/23 07:46:07;;;;;;;9.90;4.25;;;19.70;99.90;;;;;;4941825;29;20040;-89
2023/08/23 07:48:32;;;;;;;72.10;9.70;;;19.70;99.90;;;;;;4948770;28;20393;-90
2023/08/23 07:51:01;;;;;;;292.13;28.23;;;19.70;99.90;;;;;;4949533;29;20035;-88
2023/08/23 07:53:28;;;;;;;14.00;5.65;;;19.70;99.90;;;;;;4948826;28;20397;-88
2023/08/23 07:55:53;;;;;;;100.72;8.82;;;19.80;99.90;;;;;;4944047;28;20035;-91
2023/08/23 07:58:19;;;;;;;20.98;4.65;;;19.80;99.90;;;;;;4938361;28;20039;-87
2023/08/23 08:00:45;;;;;;;23.98;5.07;;;19.90;99.90;;;;;;4945206;29;20498;-90
2023/08/23 08:03:10;;;;;;;7.45;3.65;;;19.90;99.90;;;;;;4938994;28;20167;-88
2023/08/23 08:05:38;;;;;;;15.15;4.28;;;19.90;99.90;;;;;;4949322;28;20054;-86
2023/08/23 08:08:05;;;;;;;15.25;3.88;;;20.00;99.90;;;;;;4938254;28;20027;-91
2023/08/23 08:10:31;;;;;;;21.15;4.45;;;20.10;99.90;;;;;;4943408;28;20035;-86
2023/08/23 08:12:58;;;;;;;16.85;4.60;;;20.10;99.90;;;;;;4953679;28;20050;-87
2023/08/23 08:15:25;;;;;;;25.58;4.95;;;20.10;99.90;;;;;;4959297;28;20027;-87
2023/08/23 08:17:52;;;;;;;41.55;7.38;;;20.20;99.90;;;;;;4944886;29;20043;-90
2023/08/23 08:20:18;;;;;;;52.78;7.82;;;20.20;99.90;;;;;;4939168;28;20034;-87
2023/08/23 08:22:44;;;;;;;16.50;3.95;;;20.30;99.90;;;;;;4948787;28;20042;-89
2023/08/23 08:25:10;;;;;;;9.80;3.85;;;20.40;99.90;;;;;;4942550;29;20027;-87
2023/08/23 08:27:35;;;;;;;15.20;4.45;;;20.40;99.90;;;;;;4942866;28;20034;-87
2023/08/23 08:30:02;;;;;;;14.75;4.82;;;20.50;99.90;;;;;;4946049;28;20051;-88
2023/08/23 08:32:28;;;;;;;8.30;3.45;;;20.60;99.90;;;;;;4944901;29;20397;-88
2023/08/23 08:34:55;;;;;;;13.65;4.93;;;20.60;99.90;;;;;;4945122;29;20031;-88
2023/08/23 08:37:21;;;;;;;8.65;4.55;;;20.60;99.90;;;;;;4938615;29;20078;-88
2023/08/23 08:39:47;;;;;;;11.30;3.60;;;20.70;99.90;;;;;;4920462;29;20105;-88
2023/08/23 08:42:13;;;;;;;12.15;4.28;;;20.80;99.90;;;;;;4943102;28;20155;-88
2023/08/23 08:44:39;;;;;;;11.32;4.57;;;20.80;99.90;;;;;;4941119;29;20481;-87
2023/08/23 08:47:04;;;;;;;7.63;3.00;;;20.90;99.90;;;;;;4943116;29;20055;-87
2023/08/23 08:49:30;;;;;;;13.88;4.10;;;20.90;99.90;;;;;;4935946;28;20488;-88
2023/08/23 08:51:59;;;;;;;10.77;4.47;;;20.90;99.90;;;;;;4929619;28;20023;-85
2023/08/23 08:54:25;;;;;;;7.68;3.40;;;21.00;99.90;;;;;;4939611;28;20031;-88
2023/08/23 08:56:51;;;;;;;7.45;4.50;;;21.00;99.90;;;;;;4942388;28;20118;-87
2023/08/23 08:59:18;;;;;;;7.43;3.55;;;21.00;99.90;;;;;;4934792;29;20039;-89
2023/08/23 09:01:45;;;;;;;7.38;3.72;;;21.00;99.90;;;;;;4936187;29;20027;-88
2023/08/23 09:04:11;;;;;;;7.20;3.60;;;21.00;99.90;;;;;;4936055;29;20114;-84
2023/08/23 09:06:37;;;;;;;7.30;3.53;;;21.00;99.90;;;;;;4931470;29;20458;-87
2023/08/23 09:09:03;;;;;;;17.73;4.55;;;21.00;99.90;;;;;;4942436;28;20039;-86
2023/08/23 09:11:30;;;;;;;6.75;3.60;;;21.00;99.90;;;;;;4942529;29;20123;-88
2023/08/23 09:13:57;;;;;;;16.15;4.47;;;21.10;99.90;;;;;;4943378;28;20114;-86
2023/08/23 09:16:26;;;;;;;5.32;3.33;;;21.10;99.90;;;;;;4939259;28;20065;-86
2023/08/23 09:18:52;;;;;;;10.32;3.30;;;21.10;99.90;;;;;;4936333;29;20074;-88
2023/08/23 09:21:24;;;;;;;10.27;4.00;;;21.20;99.90;;;;;;4940627;29;20059;-87
2023/08/23 09:23:50;;;;;;;6.63;3.20;;;21.20;99.90;;;;;;4950168;28;20484;-87
2023/08/23 09:26:16;;;;;;;4.95;3.17;;;21.30;99.90;;;;;;4944242;29;20023;-88
2023/08/23 09:28:42;;;;;;;8.65;4.70;;;21.30;99.90;;;;;;4936752;28;20408;-84
2023/08/23 09:31:11;;;;;;;11.40;4.43;;;21.40;99.90;;;;;;4944893;28;20039;-88
2023/08/23 09:33:38;;;;;;;8.82;3.22;;;21.50;99.90;;;;;;4947682;28;20477;-87
2023/08/23 09:36:03;;;;;;;10.50;3.22;;;21.60;99.90;;;;;;4940428;28;20040;-85
2023/08/23 09:38:29;;;;;;;9.80;2.95;;;21.60;99.90;;;;;;4942874;29;20069;-87
2023/08/23 09:40:56;;;;;;;6.50;2.00;;;21.70;99.90;;;;;;4942330;28;20047;-85
2023/08/23 09:43:30;;;;;;;16.20;3.58;;;21.70;99.90;;;;;;4937222;29;20100;-90
2023/08/23 09:45:56;;;;;;;9.13;3.70;;;21.90;99.90;;;;;;4938205;29;20035;-88
2023/08/23 09:48:25;;;;;;;12.48;3.58;;;22.00;99.90;;;;;;4930335;29;20040;-90
2023/08/23 09:50:53;;;;;;;9.13;2.45;;;22.00;99.90;;;;;;4936491;29;20027;-86
2023/08/23 09:53:26;;;;;;;10.02;2.88;;;22.10;99.90;;;;;;4941518;28;20283;-91
2023/08/23 09:55:53;;;;;;;6.00;2.45;;;22.10;99.90;;;;;;4943640;28;20023;-88
2023/08/23 09:58:18;;;;;;;8.32;2.70;;;22.10;99.90;;;;;;4944681;28;20035;-89
2023/08/23 10:00:48;;;;;;;8.75;2.47;;;22.10;99.90;;;;;;4932414;28;20050;-88
2023/08/23 10:03:14;;;;;;;8.00;2.67;;;22.20;99.90;;;;;;4950672;28;20062;-88
2023/08/23 10:05:43;;;;;;;6.45;2.03;;;22.30;99.90;;;;;;4942825;28;20031;-83
2023/08/23 10:08:09;;;;;;;6.72;2.58;;;22.30;99.90;;;;;;4942818;29;20488;-88
2023/08/23 10:10:37;;;;;;;5.63;2.00;;;22.20;99.90;;;;;;4942889;29;20026;-88
2023/08/23 10:13:05;;;;;;;14.30;2.78;;;22.20;99.90;;;;;;4938578;29;20331;-86
2023/08/23 10:15:35;;;;;;;10.88;3.00;;;22.20;99.90;;;;;;4941775;29;20031;-88
2023/08/23 10:18:03;;;;;;;4.65;2.25;;;22.20;99.90;;;;;;4945437;29;20110;-89
2023/08/23 10:20:33;;;;;;;4.82;1.70;;;22.20;99.90;;;;;;4945741;29;20106;-88
2023/08/23 10:22:59;;;;;;;4.00;1.65;;;22.20;99.90;;;;;;4946521;28;20031;-87
2023/08/23 10:25:25;;;;;;;6.18;2.15;;;22.20;99.90;;;;;;4941254;29;20265;-86
2023/08/23 10:27:55;;;;;;;3.08;1.60;;;22.20;99.90;;;;;;4946171;28;20035;-88
2023/08/23 10:30:24;;;;;;;3.17;1.63;;;22.20;99.90;;;;;;4946812;28;20417;-87
2023/08/23 10:32:51;;;;;;;3.70;1.63;;;22.20;99.90;;;;;;4941957;29;20473;-87
2023/08/23 10:35:23;;;;;;;4.32;1.50;;;22.20;99.90;;;;;;4941474;28;20055;-88
2023/08/23 10:37:52;;;;;;;6.43;2.25;;;22.20;99.90;;;;;;4945001;29;20138;-92
2023/08/23 10:40:19;;;;;;;6.47;1.92;;;22.20;99.90;;;;;;4940434;28;20055;-89
2023/08/23 10:42:50;;;;;;;5.38;1.67;;;22.40;99.90;;;;;;4943696;29;20027;-88
2023/08/23 10:45:16;;;;;;;8.55;3.03;;;22.50;99.90;;;;;;4951892;29;20035;-88
2023/08/23 10:47:42;;;;;;;10.68;2.35;;;22.60;99.90;;;;;;4939157;29;20050;-85
2023/08/23 10:50:09;;;;;;;4.97;2.00;;;22.70;99.90;;;;;;4939201;29;20020;-88
2023/08/23 10:52:35;;;;;;;7.00;1.95;;;22.70;99.90;;;;;;4947332;29;20118;-91
2023/08/23 10:55:02;;;;;;;6.03;1.95;;;22.70;99.90;;;;;;4938749;28;20110;-88
2023/08/23 10:57:28;;;;;;;4.38;1.85;;;22.70;99.90;;;;;;4945208;28;20039;-88
2023/08/23 10:59:53;;;;;;;10.60;2.42;;;22.80;99.90;;;;;;4945065;28;20031;-86
2023/08/23 11:02:22;;;;;;;6.78;1.92;;;22.80;99.90;;;;;;4952496;28;20501;-88
2023/08/23 11:04:47;;;;;;;4.05;1.77;;;22.80;99.90;;;;;;4954092;28;20027;-87
2023/08/23 11:07:14;;;;;;;4.22;1.58;;;22.80;99.90;;;;;;4948724;29;20050;-90
2023/08/23 11:09:40;;;;;;;5.88;1.70;;;22.80;99.90;;;;;;4948738;29;20051;-85
2023/08/23 11:12:07;;;;;;;3.05;1.45;;;22.80;99.90;;;;;;4939157;28;20031;-89
2023/08/23 11:14:33;;;;;;;10.60;2.20;;;22.80;99.90;;;;;;4943914;29;20031;-87
2023/08/23 11:16:58;;;;;;;3.53;1.40;;;22.80;99.90;;;;;;4948315;29;20035;-85
2023/08/23 11:19:24;;;;;;;5.47;2.08;;;22.90;99.90;;;;;;4953359;28;20023;-87
2023/08/23 11:21:51;;;;;;;7.53;2.35;;;23.00;99.90;;;;;;4944431;29;20051;-85
2023/08/23 11:24:17;;;;;;;5.88;2.00;;;23.00;99.90;;;;;;4945937;28;20485;-86
2023/08/23 11:26:42;;;;;;;10.45;2.40;;;23.00;99.90;;;;;;4942790;29;20031;-88
2023/08/23 11:29:08;;;;;;;4.75;1.83;;;23.10;99.90;;;;;;4950147;28;20031;-90
2023/08/23 11:31:36;;;;;;;10.00;2.40;;;23.10;99.90;;;;;;4942832;29;20078;-87
2023/08/23 11:34:06;;;;;;;8.27;2.30;;;23.20;99.90;;;;;;4935524;29;20035;-85
2023/08/23 11:36:33;;;;;;;17.60;2.38;;;23.20;99.90;;;;;;4944536;29;20066;-88
2023/08/23 11:39:04;;;;;;;11.35;2.45;;;23.30;99.90;;;;;;4935609;28;20039;-89
2023/08/23 11:41:34;;;;;;;7.10;2.33;;;23.40;99.90;;;;;;4946882;28;20047;-85
2023/08/23 11:44:09;;;;;;;13.68;2.80;;;23.30;99.90;;;;;;4945595;29;20045;-89
2023/08/23 11:46:38;;;;;;;;;;;23.40;99.90;;;;;;4927409;29;20042;-89
2023/08/23 11:49:05;;;;;;;5.90;2.20;;;23.50;99.90;;;;;;4945792;29;19917;-86
2023/08/23 11:51:39;;;;;;;9.23;2.47;;;23.50;99.90;;;;;;4947260;29;20019;-88
2023/08/23 11:54:05;;;;;;;6.68;1.95;;;23.50;99.90;;;;;;4941831;29;20039;-88
2023/08/23 11:56:32;;;;;;;7.65;2.28;;;23.50;99.90;;;;;;4946892;28;20027;-87
2023/08/23 11:58:58;;;;;;;7.35;2.35;;;23.40;99.90;;;;;;4950221;29;20047;-86
2023/08/23 12:01:24;;;;;;;5.45;2.28;;;23.50;99.90;;;;;;4950439;29;20035;-83
2023/08/23 12:03:51;;;;;;;7.93;1.85;;;23.50;99.90;;;;;;4948097;29;20039;-84
2023/08/23 12:06:17;;;;;;;10.95;2.33;;;23.60;99.90;;;;;;4941005;29;20461;-87
2023/08/23 12:08:42;;;;;;;8.02;2.38;;;23.60;99.90;;;;;;4944502;29;20030;-85
2023/08/23 12:11:08;;;;;;;4.93;1.55;;;23.60;99.90;;;;;;4940750;29;20496;-84
2023/08/23 12:13:35;;;;;;;2.50;1.58;;;23.60;99.90;;;;;;4947319;29;20027;-88
2023/08/23 12:16:01;;;;;;;6.25;1.73;;;23.50;99.90;;;;;;4950143;29;20062;-89
2023/08/23 12:18:27;;;;;;;11.80;2.15;;;23.40;99.90;;;;;;4946686;29;20059;-86
2023/08/23 12:20:53;;;;;;;4.85;1.92;;;23.30;99.90;;;;;;4937679;29;20031;-85
2023/08/23 12:23:18;;;;;;;11.07;2.10;;;23.30;99.90;;;;;;4935705;29;20042;-88
2023/08/23 12:25:44;;;;;;;9.98;2.53;;;23.30;99.90;;;;;;4944475;29;20030;-90
2023/08/23 12:28:10;;;;;;;3.22;1.73;;;23.40;99.90;;;;;;4940314;28;20430;-89
2023/08/23 12:30:35;;;;;;;6.88;2.75;;;23.30;99.90;;;;;;4935897;28;20469;-91
2023/08/23 12:33:02;;;;;;;1.23;1.13;;;23.50;99.90;;;;;;4939822;29;20087;-89
2023/08/23 12:35:28;;;;;;;8.98;1.90;;;23.50;99.90;;;;;;4943140;28;20481;-89
2023/08/23 12:37:53;;;;;;;7.60;2.10;;;23.60;99.90;;;;;;4947954;29;20047;-89
2023/08/23 12:40:19;;;;;;;7.85;1.98;;;23.70;99.90;;;;;;4935185;28;20060;-90
2023/08/23 12:42:45;;;;;;;3.80;1.88;;;23.70;99.90;;;;;;4942193;29;20019;-87